Time;durP1;ratioP1;P1;durP2;ratioP2;P2;SDS_P1;SDS_P2;PMS_P1;PMS_P2;Temp;Humidity;BMP_temperature;BMP_pressure;BME280_temperature;BME280_humidity;BME280_pressure;Samples;Min_cycle;Max_cycle;Signal;HPM_P1;HPM_P2
2022/03/15 00:01:30;;;;;;;70.50;27.33;;;;;;;2.75;60.41;101401.88;4198038;28;20268;-70
2022/03/15 00:03:56;;;;;;;65.60;27.40;;;;;;;2.61;60.93;101403.47;4197017;28;20234;-69
2022/03/15 00:06:23;;;;;;;63.60;27.70;;;;;;;2.65;60.40;101410.28;4197044;28;21241;-71
2022/03/15 00:08:50;;;;;;;66.87;27.83;;;;;;;2.66;60.54;101404.09;4200328;28;21672;-70
2022/03/15 00:11:16;;;;;;;67.83;28.33;;;;;;;2.65;60.63;101399.78;4197872;28;20240;-69
2022/03/15 00:13:43;;;;;;;65.80;28.73;;;;;;;2.50;61.28;101402.16;4200770;28;21828;-71
2022/03/15 00:16:10;;;;;;;67.33;29.03;;;;;;;2.46;61.43;101403.22;4202258;28;20732;-70
2022/03/15 00:18:37;;;;;;;68.00;28.53;;;;;;;2.38;61.28;101402.72;4198488;28;20242;-71
2022/03/15 00:21:05;;;;;;;69.50;29.57;;;;;;;2.36;61.77;101398.44;4178612;28;25784;-70
2022/03/15 00:23:31;;;;;;;71.67;29.00;;;;;;;2.48;61.48;101390.88;4191962;28;20237;-70
2022/03/15 00:26:00;;;;;;;69.70;30.50;;;;;;;2.35;61.94;101402.00;4192923;28;20237;-73
2022/03/15 00:28:27;;;;;;;66.63;28.57;;;;;;;2.36;61.96;101409.78;4193498;28;20291;-72
2022/03/15 00:30:53;;;;;;;70.47;30.07;;;;;;;2.38;61.72;101401.88;4187703;28;25341;-69
2022/03/15 00:33:20;;;;;;;67.23;27.00;;;;;;;2.38;61.51;101386.09;4177242;28;20280;-70
2022/03/15 00:35:51;;;;;;;68.40;29.40;;;;;;;2.35;61.40;101383.63;4203737;28;21238;-71
2022/03/15 00:38:17;;;;;;;66.33;29.87;;;;;;;2.17;62.46;101380.03;4200439;28;20244;-70
2022/03/15 00:40:44;;;;;;;73.80;29.90;;;;;;;2.34;62.02;101380.13;4187402;28;20229;-69
2022/03/15 00:43:10;;;;;;;74.83;30.00;;;;;;;2.34;61.64;101385.38;4218752;28;20369;-70
2022/03/15 00:45:37;;;;;;;65.67;28.47;;;;;;;2.29;61.87;101382.09;4214317;28;20237;-70
2022/03/15 00:48:04;;;;;;;70.63;29.50;;;;;;;2.28;61.90;101376.00;4197851;28;20239;-70
2022/03/15 00:50:32;;;;;;;69.60;28.47;;;;;;;2.22;62.75;101378.91;4197271;28;20301;-69
2022/03/15 00:53:00;;;;;;;75.60;30.03;;;;;;;2.23;62.54;101383.25;4204283;28;20305;-69
2022/03/15 00:55:26;;;;;;;72.50;29.37;;;;;;;2.14;62.49;101370.53;4200401;28;20228;-68
2022/03/15 00:57:53;;;;;;;71.60;29.37;;;;;;;2.10;62.74;101372.41;4202237;28;20342;-69
2022/03/15 01:00:20;;;;;;;66.03;28.63;;;;;;;2.00;63.37;101373.75;4201702;28;20412;-70
2022/03/15 01:02:48;;;;;;;71.33;28.77;;;;;;;2.04;62.94;101380.56;4197309;28;20334;-69
2022/03/15 01:05:14;;;;;;;72.97;29.23;;;;;;;2.04;62.78;101380.56;4199746;28;20313;-69
2022/03/15 01:07:41;;;;;;;64.93;29.20;;;;;;;2.07;62.93;101382.22;4196966;28;20232;-68
2022/03/15 01:10:08;;;;;;;68.87;29.93;;;;;;;2.07;62.58;101382.22;4204082;28;20248;-69
2022/03/15 01:12:35;;;;;;;65.17;28.33;;;;;;;2.11;62.39;101370.66;4196127;28;20358;-70
2022/03/15 01:15:01;;;;;;;72.63;31.23;;;;;;;2.03;62.82;101375.38;4208869;28;21696;-70
2022/03/15 01:17:28;;;;;;;76.93;31.03;;;;;;;1.86;63.86;101371.72;4222358;28;20422;-71
2022/03/15 01:19:54;;;;;;;76.43;30.47;;;;;;;1.87;63.55;101380.44;4213800;28;21724;-69
2022/03/15 01:22:21;;;;;;;71.67;30.90;;;;;;;1.86;63.51;101379.59;4200193;28;20534;-72
2022/03/15 01:24:48;;;;;;;68.97;30.30;;;;;;;1.84;63.64;101372.72;4211924;28;20240;-71
2022/03/15 01:27:15;;;;;;;71.60;29.70;;;;;;;1.81;63.71;101370.22;4184772;28;20565;-71
2022/03/15 01:29:42;;;;;;;75.00;30.30;;;;;;;1.80;64.18;101373.75;4190897;28;20236;-70
2022/03/15 01:32:09;;;;;;;74.73;31.07;;;;;;;1.83;63.34;101368.38;4196107;28;20332;-71
2022/03/15 01:34:35;;;;;;;72.53;30.53;;;;;;;1.87;63.59;101369.94;4213022;28;23102;-70
2022/03/15 01:37:02;;;;;;;70.60;30.10;;;;;;;1.86;63.36;101378.75;4207976;28;21232;-70
2022/03/15 01:39:29;;;;;;;79.00;31.67;;;;;;;1.80;63.53;101371.13;4192196;28;20233;-70
2022/03/15 01:41:56;;;;;;;74.57;30.30;;;;;;;1.82;63.43;101377.16;4198511;28;21802;-71
2022/03/15 01:44:23;;;;;;;69.57;29.90;;;;;;;1.80;63.41;101369.38;4205374;28;23567;-70
2022/03/15 01:46:50;;;;;;;68.13;30.43;;;;;;;1.69;63.72;101367.19;4201815;28;21846;-70
2022/03/15 01:49:18;;;;;;;69.53;29.87;;;;;;;1.65;63.92;101370.00;4192997;28;20245;-71
2022/03/15 01:51:46;;;;;;;76.77;30.90;;;;;;;1.66;64.27;101367.34;4194588;28;20236;-72
2022/03/15 01:54:14;;;;;;;77.87;30.90;;;;;;;1.55;64.36;101372.19;4183864;28;20233;-71
2022/03/15 01:56:42;;;;;;;69.30;31.07;;;;;;;1.67;64.41;101382.16;4187611;28;20229;-69
2022/03/15 01:59:10;;;;;;;69.63;29.90;;;;;;;1.79;63.75;101387.81;4192872;28;20234;-72
2022/03/15 02:01:37;;;;;;;76.53;31.53;;;;;;;1.77;63.24;101379.13;4199507;28;22901;-69
2022/03/15 02:04:05;;;;;;;74.30;31.77;;;;;;;1.58;64.37;101374.66;4213972;28;20247;-70
2022/03/15 02:06:35;;;;;;;73.60;29.90;;;;;;;1.69;63.70;101380.31;4209253;28;20375;-71
2022/03/15 02:09:09;;;;;;;76.43;30.73;;;;;;;1.59;63.94;101371.13;4202586;28;20242;-71
2022/03/15 02:11:35;;;;;;;69.77;29.50;;;;;;;1.68;63.70;101362.84;4196152;28;20263;-70
2022/03/15 02:14:03;;;;;;;69.83;29.70;;;;;;;1.75;63.64;101366.06;4198759;28;20232;-71
2022/03/15 02:16:29;;;;;;;74.23;30.60;;;;;;;1.77;62.39;101366.88;4202819;28;20346;-70
2022/03/15 02:18:58;;;;;;;69.30;30.70;;;;;;;1.67;63.11;101369.03;4193703;28;20640;-69
2022/03/15 02:21:26;;;;;;;74.53;31.00;;;;;;;1.62;63.13;101371.00;4189301;28;20248;-71
2022/03/15 02:23:52;;;;;;;77.30;30.43;;;;;;;1.58;63.32;101364.16;4205165;28;20447;-71
2022/03/15 02:26:19;;;;;;;69.87;29.93;;;;;;;1.59;63.25;101352.78;4204130;28;20236;-70
2022/03/15 02:28:46;;;;;;;65.57;29.70;;;;;;;1.63;63.03;101362.19;4194705;28;20366;-70
2022/03/15 02:31:13;;;;;;;67.63;30.17;;;;;;;1.54;63.33;101357.34;4183582;28;21283;-69
2022/03/15 02:33:40;;;;;;;79.10;30.97;;;;;;;1.62;63.12;101360.50;4190454;28;21647;-72
2022/03/15 02:36:06;;;;;;;72.17;30.23;;;;;;;1.76;62.01;101361.69;4203861;28;20309;-71
2022/03/15 02:38:33;;;;;;;73.20;29.70;;;;;;;1.66;61.91;101358.59;4197360;28;20237;-69
2022/03/15 02:41:00;;;;;;;73.63;30.60;;;;;;;1.57;62.31;101362.47;4201481;28;21711;-70
2022/03/15 02:43:26;;;;;;;70.23;29.77;;;;;;;1.61;61.82;101368.44;4195270;28;21742;-71
2022/03/15 02:45:53;;;;;;;66.97;29.17;;;;;;;1.62;61.97;101360.50;4196257;28;21958;-70
2022/03/15 02:48:20;;;;;;;63.97;28.47;;;;;;;1.60;62.11;101367.59;4206960;28;20241;-70
2022/03/15 02:50:47;;;;;;;72.83;29.63;;;;;;;1.60;61.68;101366.75;4194236;28;20251;-69
2022/03/15 02:53:14;;;;;;;74.17;30.77;;;;;;;1.52;61.91;101369.66;4204186;28;20917;-70
2022/03/15 02:55:40;;;;;;;70.17;29.83;;;;;;;1.38;62.51;101372.88;4202071;28;20608;-69
2022/03/15 02:58:07;;;;;;;70.97;29.87;;;;;;;1.32;62.75;101372.28;4195306;28;20568;-69
2022/03/15 03:00:34;;;;;;;71.13;29.23;;;;;;;1.30;62.69;101368.84;4188260;28;20235;-70
2022/03/15 03:03:02;;;;;;;73.53;29.43;;;;;;;1.38;62.66;101361.50;4192392;28;20256;-69
2022/03/15 03:05:29;;;;;;;73.20;30.93;;;;;;;1.41;62.29;101369.28;4186885;28;21202;-71
2022/03/15 03:07:55;;;;;;;75.83;29.17;;;;;;;1.55;61.40;101372.19;4213965;28;20479;-70
2022/03/15 03:10:22;;;;;;;71.43;28.70;;;;;;;1.57;61.37;101375.59;4209629;28;20495;-69
2022/03/15 03:12:49;;;;;;;73.03;29.33;;;;;;;1.53;61.48;101370.53;4207510;28;20290;-70
2022/03/15 03:15:20;;;;;;;65.87;28.10;;;;;;;1.61;60.83;101369.28;4191839;28;20283;-72
2022/03/15 03:17:46;;;;;;;74.87;29.27;;;;;;;1.42;61.58;101374.44;4208591;28;20306;-71
2022/03/15 03:20:19;;;;;;;68.93;28.67;;;;;;;1.49;61.33;101380.28;4195629;28;22569;-70
2022/03/15 03:22:46;;;;;;;76.97;28.90;;;;;;;1.54;61.52;101383.56;4184288;28;20242;-69
2022/03/15 03:25:13;;;;;;;72.27;28.60;;;;;;;1.54;61.52;101387.97;4194408;28;20235;-69
2022/03/15 03:27:40;;;;;;;71.03;28.07;;;;;;;1.55;60.78;101384.44;4193567;28;21370;-69
2022/03/15 03:30:07;;;;;;;66.97;27.83;;;;;;;1.47;61.18;101385.63;4231162;28;20242;-71
2022/03/15 03:32:34;;;;;;;72.70;29.43;;;;;;;1.59;60.97;101375.50;4194965;28;21081;-71
2022/03/15 03:35:04;;;;;;;68.50;28.00;;;;;;;1.64;60.18;101373.56;4192173;28;21761;-72
2022/03/15 03:37:32;;;;;;;70.63;29.93;;;;;;;1.50;60.99;101371.53;4190312;28;20296;-70
2022/03/15 03:39:59;;;;;;;68.00;27.50;;;;;;;1.52;60.84;101374.91;4200542;28;21288;-70
2022/03/15 03:42:26;;;;;;;68.20;27.87;;;;;;;1.68;60.10;101370.72;4192367;28;25558;-70
2022/03/15 03:44:52;;;;;;;65.67;27.40;;;;;;;1.67;59.80;101379.53;4230484;28;20962;-70
2022/03/15 03:47:19;;;;;;;67.20;27.83;;;;;;;1.61;60.27;101374.53;4196839;28;20223;-71
2022/03/15 03:49:46;;;;;;;70.97;28.70;;;;;;;1.53;60.94;101376.63;4185439;28;21559;-70
2022/03/15 03:52:13;;;;;;;75.00;29.57;;;;;;;1.51;61.05;101377.63;4182625;28;20256;-71
2022/03/15 03:54:39;;;;;;;65.37;27.40;;;;;;;1.43;61.81;101372.69;4194175;28;20241;-70
2022/03/15 03:57:06;;;;;;;69.93;29.30;;;;;;;1.35;61.18;101377.38;4195810;28;23300;-72
2022/03/15 03:59:33;;;;;;;71.30;30.17;;;;;;;1.33;60.98;101373.97;4188629;28;20328;-71
2022/03/15 04:01:59;;;;;;;69.43;28.17;;;;;;;1.38;61.53;101377.25;4197613;28;20248;-70
2022/03/15 04:04:26;;;;;;;70.53;28.60;;;;;;;1.34;61.00;101371.28;4189815;28;20237;-70
2022/03/15 04:06:54;;;;;;;73.87;28.40;;;;;;;1.32;61.18;101373.13;4204426;28;26323;-71
2022/03/15 04:09:22;;;;;;;68.47;29.07;;;;;;;1.36;61.17;101379.94;4192704;28;20239;-70
2022/03/15 04:11:50;;;;;;;66.50;28.93;;;;;;;1.36;61.16;101374.72;4196343;28;20274;-72
2022/03/15 04:14:16;;;;;;;70.73;28.63;;;;;;;1.34;61.10;101376.53;4207295;28;23617;-71
2022/03/15 04:16:43;;;;;;;63.83;27.90;;;;;;;1.23;61.19;101371.72;4207457;28;22580;-70
2022/03/15 04:19:14;;;;;;;76.40;29.13;;;;;;;1.14;61.17;101372.09;4202851;28;21295;-69
2022/03/15 04:21:40;;;;;;;68.23;28.07;;;;;;;1.20;61.82;101374.47;4197682;28;21228;-70
2022/03/15 04:24:07;;;;;;;69.70;29.33;;;;;;;1.17;61.64;101369.38;4192951;28;20229;-70
2022/03/15 04:26:33;;;;;;;74.43;28.47;;;;;;;1.18;61.72;101370.22;4194331;28;20239;-71
2022/03/15 04:29:00;;;;;;;73.03;30.03;;;;;;;1.22;61.69;101370.03;4229169;28;20717;-71
2022/03/15 04:31:26;;;;;;;63.87;27.17;;;;;;;1.34;60.97;101367.81;4200620;28;20294;-69
2022/03/15 04:33:54;;;;;;;71.83;28.33;;;;;;;1.22;61.43;101370.03;4187724;28;20368;-71
2022/03/15 04:36:20;;;;;;;64.93;28.20;;;;;;;1.33;60.24;101366.09;4196814;28;20232;-69
2022/03/15 04:38:50;;;;;;;77.73;27.97;;;;;;;1.29;60.62;101368.00;4196688;28;20248;-73
2022/03/15 04:41:17;;;;;;;69.83;28.77;;;;;;;1.20;60.58;101368.38;4202076;28;20662;-71
2022/03/15 04:43:43;;;;;;;68.70;28.67;;;;;;;1.17;61.13;101364.13;4195205;28;20627;-69
2022/03/15 04:46:11;;;;;;;72.70;27.77;;;;;;;1.25;60.25;101367.28;4194692;28;21170;-70
2022/03/15 04:48:38;;;;;;;64.60;27.00;;;;;;;1.21;60.55;101370.06;4188386;28;20273;-70
2022/03/15 04:51:06;;;;;;;73.37;28.13;;;;;;;1.29;60.01;101368.00;4203078;28;20251;-70
2022/03/15 04:53:32;;;;;;;76.37;27.67;;;;;;;1.32;60.00;101373.13;4207964;28;20330;-70
2022/03/15 04:55:59;;;;;;;71.43;27.83;;;;;;;1.33;59.66;101363.47;4200604;28;20241;-71
2022/03/15 04:58:26;;;;;;;67.10;27.03;;;;;;;1.40;59.88;101360.53;4205937;28;20418;-71
2022/03/15 05:00:52;;;;;;;64.30;26.20;;;;;;;1.41;59.37;101357.00;4209683;28;22864;-70
2022/03/15 05:03:19;;;;;;;69.23;26.27;;;;;;;1.41;59.24;101364.03;4189407;28;20399;-70
2022/03/15 05:05:46;;;;;;;66.03;25.73;;;;;;;1.57;58.57;101358.97;4201916;28;20241;-70
2022/03/15 05:08:14;;;;;;;65.30;25.37;;;;;;;1.73;58.08;101361.81;4247670;28;20421;-70
2022/03/15 05:13:26;;;;;;;69.13;25.47;;;;;;;1.83;58.26;101371.84;4228350;28;21743;-71
2022/03/15 05:15:54;;;;;;;65.47;27.00;;;;;;;1.88;57.82;101363.78;4231656;28;20232;-71
2022/03/15 05:18:21;;;;;;;73.20;25.07;;;;;;;1.99;56.91;101356.31;4211291;28;20926;-70
2022/03/15 05:20:50;;;;;;;73.07;26.90;;;;;;;1.98;56.97;101359.00;4221767;28;21412;-70
2022/03/15 05:23:17;;;;;;;67.33;26.90;;;;;;;2.05;56.90;101357.78;4207618;28;21625;-70
2022/03/15 05:25:44;;;;;;;63.77;26.50;;;;;;;2.18;55.98;101358.09;4190807;28;20238;-70
2022/03/15 05:28:10;;;;;;;58.00;24.97;;;;;;;2.25;55.87;101349.03;4216628;28;20336;-70
2022/03/15 05:30:37;;;;;;;54.80;23.30;;;;;;;2.28;55.57;101355.00;4200566;28;20264;-71
2022/03/15 05:33:04;;;;;;;60.30;24.33;;;;;;;2.35;55.51;101365.25;4208178;28;21690;-71
2022/03/15 05:35:31;;;;;;;73.00;27.57;;;;;;;2.41;55.30;101363.19;4201118;28;21186;-71
2022/03/15 05:37:57;;;;;;;61.80;26.03;;;;;;;2.42;55.58;101362.25;4192676;28;21881;-73
2022/03/15 05:40:25;;;;;;;68.23;26.33;;;;;;;2.42;55.69;101367.50;4201004;28;20236;-75
2022/03/15 05:42:51;;;;;;;61.00;26.00;;;;;;;2.54;55.43;101372.19;4177471;28;22426;-71
2022/03/15 05:45:18;;;;;;;59.37;25.77;;;;;;;2.53;55.08;101386.28;4199690;28;20297;-71
2022/03/15 05:47:45;;;;;;;65.60;26.07;;;;;;;2.58;55.10;101378.19;4199527;28;20254;-71
2022/03/15 05:50:11;;;;;;;68.93;27.97;;;;;;;2.69;54.83;101367.16;4200013;28;20241;-72
2022/03/15 05:52:38;;;;;;;60.57;25.47;;;;;;;2.73;54.77;101372.19;4191871;28;21833;-72
2022/03/15 05:55:05;;;;;;;67.70;25.53;;;;;;;2.82;54.39;101373.53;4200720;28;20308;-75
2022/03/15 05:57:31;;;;;;;57.33;25.73;;;;;;;2.82;54.42;101365.66;4225349;28;22246;-72
2022/03/15 05:59:58;;;;;;;61.20;24.97;;;;;;;2.93;53.98;101379.16;4211023;28;20227;-72
2022/03/15 06:02:24;;;;;;;69.00;26.40;;;;;;;2.99;54.00;101380.63;4193464;28;20237;-77
2022/03/15 06:04:51;;;;;;;61.20;25.40;;;;;;;2.93;54.29;101375.69;4194809;28;21864;-72
2022/03/15 06:07:18;;;;;;;58.33;25.90;;;;;;;3.14;53.67;101374.66;4203020;28;20232;-73
2022/03/15 06:09:44;;;;;;;69.10;26.03;;;;;;;3.25;53.23;101382.00;4210820;28;20347;-73
2022/03/15 06:12:11;;;;;;;66.27;27.30;;;;;;;3.29;52.89;101373.03;4209647;28;20226;-77
2022/03/15 06:14:37;;;;;;;72.67;27.27;;;;;;;3.33;53.39;101382.50;4200668;28;20237;-71
2022/03/15 06:17:04;;;;;;;61.37;27.47;;;;;;;3.45;53.20;101385.47;4205871;28;23138;-74
2022/03/15 06:19:31;;;;;;;62.50;26.57;;;;;;;3.50;53.22;101399.22;4202992;28;20745;-72
2022/03/15 06:21:58;;;;;;;81.77;28.30;;;;;;;3.58;53.03;101394.44;4195270;28;20233;-72
2022/03/15 06:24:26;;;;;;;70.33;25.97;;;;;;;3.74;52.58;101395.34;4209425;28;23231;-64
2022/03/15 06:26:53;;;;;;;79.53;26.63;;;;;;;3.87;52.16;101407.94;4213683;28;20425;-68
2022/03/15 06:29:20;;;;;;;57.13;25.07;;;;;;;4.04;51.84;101402.63;4211464;28;20245;-70
2022/03/15 06:31:48;;;;;;;76.07;27.70;;;;;;;4.20;52.17;101414.06;4206256;28;20238;-71
2022/03/15 06:34:35;;;;;;;63.27;25.67;;;;;;;4.38;51.94;101408.78;4201628;28;20239;-71
2022/03/15 06:37:01;;;;;;;71.70;27.90;;;;;;;4.48;52.76;101410.00;4231185;28;21465;-75
2022/03/15 06:39:28;;;;;;;61.00;26.57;;;;;;;4.71;51.84;101410.56;4207129;28;20453;-75
2022/03/15 06:41:55;;;;;;;65.93;27.17;;;;;;;4.72;52.42;101406.97;4226925;28;20321;-73
2022/03/15 06:44:22;;;;;;;77.20;27.10;;;;;;;4.79;52.64;101410.97;4219874;28;20309;-78
2022/03/15 06:46:49;;;;;;;70.37;27.97;;;;;;;4.78;53.17;101401.38;4194490;28;20273;-74
2022/03/15 06:49:15;;;;;;;65.33;28.33;;;;;;;4.89;52.94;101398.97;4213006;28;20247;-73
2022/03/15 06:51:42;;;;;;;71.37;28.67;;;;;;;4.89;54.06;101396.34;4226487;28;20408;-74
2022/03/15 06:54:09;;;;;;;62.57;25.83;;;;;;;4.58;55.51;101402.44;4214668;28;20294;-72
2022/03/15 06:56:37;;;;;;;67.67;25.93;;;;;;;4.67;55.84;101404.59;4196401;28;25384;-73
2022/03/15 06:59:04;;;;;;;55.40;25.47;;;;;;;4.79;55.88;101409.19;4239742;28;20237;-80
2022/03/15 07:01:30;;;;;;;63.73;27.20;;;;;;;4.89;56.00;101406.88;4214708;28;20380;-72
2022/03/15 07:03:57;;;;;;;60.20;24.83;;;;;;;5.10;56.00;101417.19;4196479;28;21382;-73
2022/03/15 07:06:24;;;;;;;51.17;23.27;;;;;;;5.22;55.62;101413.84;4213830;28;21339;-75
2022/03/15 07:08:50;;;;;;;56.73;22.50;;;;;;;5.01;57.07;101414.16;4206900;28;21701;-70
2022/03/15 07:11:17;;;;;;;55.00;23.37;;;;;;;4.96;57.15;101410.88;4223195;28;20245;-73
2022/03/15 07:13:44;;;;;;;53.30;22.77;;;;;;;5.24;57.49;101412.00;4203159;28;20462;-71
2022/03/15 07:16:10;;;;;;;52.43;22.47;;;;;;;5.18;57.37;101417.63;4199769;28;21704;-71
2022/03/15 07:18:37;;;;;;;52.13;22.00;;;;;;;5.34;57.85;101415.84;4198871;28;20417;-73
2022/03/15 07:21:03;;;;;;;45.97;21.77;;;;;;;5.24;58.48;101422.53;4194081;28;20240;-73
2022/03/15 07:23:30;;;;;;;47.77;21.03;;;;;;;5.33;58.61;101423.81;4206221;28;20233;-73
2022/03/15 07:25:57;;;;;;;46.43;21.70;;;;;;;5.40;58.39;101419.91;4192607;28;22672;-74
2022/03/15 07:28:23;;;;;;;46.20;20.33;;;;;;;5.28;59.48;101427.56;4221049;28;21756;-74
2022/03/15 07:30:50;;;;;;;44.60;21.57;;;;;;;5.41;59.54;101433.03;4228899;28;20240;-75
2022/03/15 07:33:16;;;;;;;48.90;20.87;;;;;;;5.82;58.58;101429.75;4198014;28;20237;-72
2022/03/15 07:35:43;;;;;;;47.27;19.50;;;;;;;6.22;57.24;101427.44;4213364;28;21197;-76
2022/03/15 07:38:10;;;;;;;50.87;20.33;;;;;;;7.97;51.90;101440.09;4194574;28;20674;-71
2022/03/15 07:40:37;;;;;;;42.10;19.43;;;;;;;10.35;44.73;101446.88;4186603;28;20235;-71
2022/03/15 07:43:04;;;;;;;44.03;20.20;;;;;;;11.90;39.82;101462.91;4197631;28;20232;-72
2022/03/15 07:45:30;;;;;;;42.23;19.67;;;;;;;12.78;37.21;101464.28;4210784;28;21258;-75
2022/03/15 07:47:57;;;;;;;44.00;19.80;;;;;;;13.53;36.83;101475.47;4215583;28;20240;-74
2022/03/15 07:50:25;;;;;;;40.93;19.07;;;;;;;17.25;29.96;101490.09;4170735;28;20342;-71
2022/03/15 07:52:53;;;;;;;40.57;17.73;;;;;;;19.28;26.87;101503.66;4197437;28;20247;-76
2022/03/15 07:55:21;;;;;;;35.77;18.20;;;;;;;19.68;24.84;101509.88;4210218;28;20313;-76
2022/03/15 07:57:48;;;;;;;39.97;19.33;;;;;;;19.17;25.81;101513.00;4188442;28;20293;-80
2022/03/15 08:00:15;;;;;;;38.27;18.83;;;;;;;17.79;27.51;101501.31;4190087;28;20568;-73
2022/03/15 08:02:42;;;;;;;36.87;18.17;;;;;;;16.32;29.85;101489.88;4200480;28;21010;-74
2022/03/15 08:05:09;;;;;;;35.83;18.47;;;;;;;17.13;29.41;101483.31;4223676;28;21742;-73
2022/03/15 08:07:36;;;;;;;38.50;19.13;;;;;;;15.44;31.75;101479.84;4200221;28;20265;-71
2022/03/15 08:10:05;;;;;;;37.10;18.50;;;;;;;13.76;35.72;101470.72;4212480;28;20699;-72
2022/03/15 08:12:32;;;;;;;36.37;18.30;;;;;;;12.75;38.16;101464.53;4221021;28;21862;-71
2022/03/15 08:14:59;;;;;;;33.20;17.77;;;;;;;14.19;35.92;101466.78;4221546;28;20240;-75
2022/03/15 08:17:26;;;;;;;32.20;18.03;;;;;;;14.09;35.38;101479.31;4214258;28;25195;-78
2022/03/15 08:19:53;;;;;;;34.77;18.23;;;;;;;13.48;36.80;101478.56;4219958;28;22743;-76
2022/03/15 08:22:20;;;;;;;37.30;18.47;;;;;;;13.32;37.97;101472.91;4225776;28;22512;-71
2022/03/15 08:24:48;;;;;;;36.37;18.83;;;;;;;13.23;38.68;101474.56;4190218;28;20220;-76
2022/03/15 08:27:15;;;;;;;38.73;19.27;;;;;;;12.10;40.37;101471.03;4213657;28;20300;-76
2022/03/15 08:29:43;;;;;;;37.93;18.83;;;;;;;10.91;44.03;101453.19;4203895;28;20253;-76
2022/03/15 08:32:10;;;;;;;44.13;19.30;;;;;;;10.34;46.22;101453.16;4215841;28;20297;-71
2022/03/15 08:34:37;;;;;;;42.20;20.00;;;;;;;9.50;49.54;101440.88;4200364;28;21479;-75
2022/03/15 08:37:09;;;;;;;40.40;20.47;;;;;;;8.81;52.89;101435.25;4210106;28;20243;-68
2022/03/15 08:39:35;;;;;;;48.50;20.07;;;;;;;8.07;55.27;101426.22;4192147;28;20391;-75
2022/03/15 08:42:03;;;;;;;38.90;20.10;;;;;;;8.25;56.04;101427.63;4207371;28;20230;-70
2022/03/15 08:44:29;;;;;;;42.40;20.27;;;;;;;8.32;55.94;101418.28;4204206;28;20496;-74
2022/03/15 08:46:56;;;;;;;36.60;18.97;;;;;;;8.86;55.33;101418.03;4247488;28;20228;-77
2022/03/15 08:49:23;;;;;;;40.27;18.73;;;;;;;9.61;52.66;101419.69;4213184;28;20299;-75
2022/03/15 08:51:50;;;;;;;43.83;19.00;;;;;;;9.92;51.54;101420.03;4196459;28;20344;-70
2022/03/15 08:54:18;;;;;;;36.93;18.40;;;;;;;10.13;51.65;101421.03;4173455;28;26975;-69
2022/03/15 08:56:44;;;;;;;37.70;18.37;;;;;;;10.07;51.48;101407.38;4203082;28;20232;-68
2022/03/15 08:59:15;;;;;;;37.00;18.00;;;;;;;10.12;50.98;101407.88;4184616;28;20227;-70
2022/03/15 09:01:42;;;;;;;33.30;18.03;;;;;;;9.60;53.51;101412.69;4199900;28;21251;-71
2022/03/15 09:04:10;;;;;;;36.47;17.90;;;;;;;9.33;54.96;101402.28;4196396;28;20762;-72
2022/03/15 09:06:37;;;;;;;41.33;18.53;;;;;;;9.63;54.49;101404.47;4163989;28;20438;-71
2022/03/15 09:09:04;;;;;;;31.47;17.30;;;;;;;9.62;54.98;101404.56;4199177;28;20524;-73
2022/03/15 09:11:32;;;;;;;34.13;17.37;;;;;;;9.61;54.96;101408.19;4195762;28;21700;-71
2022/03/15 09:13:59;;;;;;;36.53;17.23;;;;;;;10.27;53.45;101406.66;4210719;28;20353;-70
2022/03/15 09:16:26;;;;;;;33.77;17.63;;;;;;;10.65;52.71;101407.31;4206210;28;20229;-71
2022/03/15 09:18:53;;;;;;;39.57;17.83;;;;;;;10.97;51.24;101408.25;4233788;28;20740;-71
2022/03/15 09:21:20;;;;;;;33.13;16.10;;;;;;;11.32;50.22;101407.22;4219988;28;20285;-72
2022/03/15 09:23:46;;;;;;;36.93;17.57;;;;;;;11.57;49.16;101408.72;4197151;28;20286;-72
2022/03/15 09:26:13;;;;;;;35.53;17.33;;;;;;;11.92;47.46;101409.44;4205465;28;20229;-74
2022/03/15 09:28:41;;;;;;;35.27;18.23;;;;;;;10.77;50.79;101403.72;4256895;28;20305;-72
2022/03/15 09:31:08;;;;;;;34.37;17.57;;;;;;;9.89;54.99;101407.81;4197621;28;20242;-74
2022/03/15 09:33:35;;;;;;;41.67;18.60;;;;;;;9.88;54.53;101405.25;4189157;28;20329;-71
2022/03/15 09:36:04;;;;;;;34.77;17.97;;;;;;;10.11;53.77;101401.72;4196954;28;21551;-74
2022/03/15 09:38:31;;;;;;;35.33;17.93;;;;;;;10.32;52.91;101414.31;4199821;28;20244;-71
2022/03/15 09:41:04;;;;;;;38.17;17.80;;;;;;;10.44;53.22;101407.19;4208910;28;20296;-71
2022/03/15 09:43:40;;;;;;;34.63;19.07;;;;;;;10.23;53.75;101421.19;4203812;28;21628;-70
2022/03/15 09:46:08;;;;;;;32.53;17.77;;;;;;;9.82;55.07;101419.03;4186182;28;20515;-70
2022/03/15 09:48:55;;;;;;;31.90;17.57;;;;;;;9.76;55.94;101411.50;4195251;28;20232;-73
2022/03/15 09:51:23;;;;;;;36.07;18.37;;;;;;;9.76;56.47;101412.34;4193725;28;20822;-71
2022/03/15 09:53:50;;;;;;;35.37;17.50;;;;;;;9.67;56.24;101413.91;4212109;28;21747;-71
2022/03/15 09:56:17;;;;;;;32.00;17.67;;;;;;;9.45;57.02;101409.34;4192679;28;20242;-70
2022/03/15 09:58:43;;;;;;;32.47;18.20;;;;;;;9.24;58.24;101417.06;4187494;28;20243;-71
2022/03/15 10:01:17;;;;;;;33.60;18.00;;;;;;;9.24;60.18;101422.38;4174106;28;20316;-71
2022/03/15 10:03:45;;;;;;;30.80;17.03;;;;;;;9.25;60.13;101418.78;4202420;28;22608;-72
2022/03/15 10:06:13;;;;;;;35.93;17.33;;;;;;;9.17;60.89;101414.97;4193170;28;21784;-68
2022/03/15 10:08:40;;;;;;;31.90;16.80;;;;;;;9.41;60.89;101422.97;4194439;28;22872;-71
2022/03/15 10:11:07;;;;;;;33.97;17.50;;;;;;;8.79;63.16;101419.44;4193632;28;20310;-68
2022/03/15 10:13:36;;;;;;;30.03;16.83;;;;;;;8.45;65.10;101415.66;4194010;28;20251;-69
2022/03/15 10:16:05;;;;;;;31.87;17.33;;;;;;;8.38;65.73;101406.41;4195681;28;21418;-70
2022/03/15 10:18:33;;;;;;;30.13;16.47;;;;;;;8.40;65.96;101400.06;4214904;28;20228;-69
2022/03/15 10:21:04;;;;;;;34.27;18.53;;;;;;;8.37;67.11;101402.91;4208544;28;20338;-69
2022/03/15 10:23:36;;;;;;;30.00;17.37;;;;;;;8.59;66.27;101409.38;4214983;28;20243;-73
2022/03/15 10:26:04;;;;;;;29.23;16.60;;;;;;;8.78;65.05;101401.84;4205480;28;20330;-71
2022/03/15 10:28:31;;;;;;;35.67;17.00;;;;;;;8.90;65.05;101404.53;4217705;28;20232;-71
2022/03/15 10:30:59;;;;;;;29.60;15.23;;;;;;;9.16;63.14;101402.69;4198279;28;20237;-73
2022/03/15 10:33:28;;;;;;;30.80;17.23;;;;;;;9.06;63.50;101402.47;4209278;28;20237;-72
2022/03/15 10:35:54;;;;;;;32.80;18.40;;;;;;;9.03;63.49;101402.72;4209366;28;20262;-70
2022/03/15 10:38:21;;;;;;;35.57;17.97;;;;;;;8.96;63.82;101396.16;4191727;28;20236;-72
2022/03/15 10:40:55;;;;;;;32.63;18.00;;;;;;;8.96;64.06;101396.16;4195752;28;20236;-72
2022/03/15 10:43:27;;;;;;;29.87;16.67;;;;;;;8.94;63.53;101385.63;4203859;28;20225;-70
2022/03/15 10:45:57;;;;;;;31.97;17.00;;;;;;;9.07;63.41;101377.63;4211334;28;21806;-71
2022/03/15 10:48:24;;;;;;;36.50;18.20;;;;;;;9.20;63.70;101389.06;4211068;28;20306;-70
2022/03/15 10:50:56;;;;;;;31.87;17.97;;;;;;;9.12;63.42;101383.47;4251075;28;23033;-70
2022/03/15 10:53:34;;;;;;;34.13;18.43;;;;;;;8.93;63.93;101383.09;4197622;28;20286;-74
2022/03/15 10:56:18;;;;;;;30.63;17.10;;;;;;;9.18;63.83;101375.06;4204678;28;21019;-71
2022/03/15 10:59:02;;;;;;;37.53;19.53;;;;;;;9.39;63.20;101374.41;4208974;28;20263;-72
2022/03/15 11:01:35;;;;;;;35.50;18.83;;;;;;;9.70;61.90;101371.16;4199112;28;20328;-72
2022/03/15 11:04:04;;;;;;;31.63;18.17;;;;;;;10.15;60.35;101363.25;4218372;28;20320;-72
2022/03/15 11:06:38;;;;;;;31.77;17.63;;;;;;;10.21;59.40;101355.75;4210697;28;20240;-71
2022/03/15 11:09:18;;;;;;;37.77;17.77;;;;;;;9.97;59.65;101356.69;4212697;28;20340;-72
2022/03/15 11:12:05;;;;;;;28.03;16.80;;;;;;;9.88;60.19;101354.75;4203304;28;22091;-72
2022/03/15 11:14:40;;;;;;;31.10;17.53;;;;;;;9.85;59.53;101358.50;4229342;28;21350;-72
2022/03/15 11:17:09;;;;;;;31.27;17.80;;;;;;;9.87;59.53;101355.72;4184856;28;20523;-73
2022/03/15 11:19:50;;;;;;;30.30;16.97;;;;;;;9.98;60.20;101357.56;4210451;28;20225;-70
2022/03/15 11:22:20;;;;;;;35.03;16.73;;;;;;;10.24;59.33;101350.22;4213677;28;20314;-75